sensor_id;sensor_type;location;lat;lon;timestamp;pressure;altitude;pressure_sealevel;temperature;humidity
75681;BME280;64294;49.176;16.626;2023-05-18T00:00:36;99879.94;;;8.19;100.00
75681;BME280;64294;49.176;16.626;2023-05-18T00:03:02;99874.56;;;8.16;100.00
75681;BME280;64294;49.176;16.626;2023-05-18T00:05:28;99870.50;;;8.17;100.00
75681;BME280;64294;49.176;16.626;2023-05-18T00:07:58;99869.72;;;8.16;100.00
75681;BME280;64294;49.176;16.626;2023-05-18T00:10:24;99867.94;;;8.13;100.00
75681;BME280;64294;49.176;16.626;2023-05-18T00:12:50;99873.81;;;8.10;100.00
75681;BME280;64294;49.176;16.626;2023-05-18T00:15:15;99869.47;;;8.14;100.00
75681;BME280;64294;49.176;16.626;2023-05-18T00:17:40;99870.00;;;8.18;100.00
75681;BME280;64294;49.176;16.626;2023-05-18T00:20:07;99870.78;;;8.25;100.00
75681;BME280;64294;49.176;16.626;2023-05-18T00:22:34;99866.19;;;8.27;100.00
75681;BME280;64294;49.176;16.626;2023-05-18T00:24:59;99865.94;;;8.25;100.00
75681;BME280;64294;49.176;16.626;2023-05-18T00:27:25;99871.25;;;8.17;100.00
75681;BME280;64294;49.176;16.626;2023-05-18T00:29:50;99871.28;;;8.23;100.00
75681;BME280;64294;49.176;16.626;2023-05-18T00:32:15;99867.72;;;8.23;100.00
75681;BME280;64294;49.176;16.626;2023-05-18T00:34:41;99865.41;;;8.32;100.00
75681;BME280;64294;49.176;16.626;2023-05-18T00:37:06;99864.91;;;8.23;100.00
75681;BME280;64294;49.176;16.626;2023-05-18T00:39:31;99861.34;;;8.28;100.00
75681;BME280;64294;49.176;16.626;2023-05-18T00:41:57;99867.19;;;8.30;100.00
75681;BME280;64294;49.176;16.626;2023-05-18T00:44:22;99865.16;;;8.19;100.00
75681;BME280;64294;49.176;16.626;2023-05-18T00:46:50;99875.84;;;8.32;100.00
75681;BME280;64294;49.176;16.626;2023-05-18T00:49:16;99870.78;;;8.25;100.00
75681;BME280;64294;49.176;16.626;2023-05-18T00:51:42;99874.59;;;8.27;100.00
75681;BME280;64294;49.176;16.626;2023-05-18T00:54:08;99867.97;;;8.25;100.00
75681;BME280;64294;49.176;16.626;2023-05-18T00:56:36;99863.38;;;8.16;100.00
75681;BME280;64294;49.176;16.626;2023-05-18T00:59:06;99874.81;;;8.18;100.00
75681;BME280;64294;49.176;16.626;2023-05-18T01:01:33;99873.81;;;8.21;100.00
75681;BME280;64294;49.176;16.626;2023-05-18T01:04:00;99866.94;;;8.22;100.00
75681;BME280;64294;49.176;16.626;2023-05-18T01:06:28;99873.31;;;8.23;100.00
75681;BME280;64294;49.176;16.626;2023-05-18T01:09:00;99875.84;;;8.26;100.00
75681;BME280;64294;49.176;16.626;2023-05-18T01:11:48;99876.63;;;8.21;100.00
75681;BME280;64294;49.176;16.626;2023-05-18T01:20:14;99874.34;;;8.19;100.00
75681;BME280;64294;49.176;16.626;2023-05-18T01:22:55;99872.81;;;8.18;100.00
75681;BME280;64294;49.176;16.626;2023-05-18T01:25:33;99877.63;;;8.18;100.00
75681;BME280;64294;49.176;16.626;2023-05-18T01:28:13;99880.91;;;8.16;100.00
75681;BME280;64294;49.176;16.626;2023-05-18T01:30:41;99876.84;;;8.17;100.00
75681;BME280;64294;49.176;16.626;2023-05-18T01:33:08;99884.78;;;8.19;100.00
75681;BME280;64294;49.176;16.626;2023-05-18T01:35:35;99880.94;;;8.28;100.00
75681;BME280;64294;49.176;16.626;2023-05-18T01:38:01;99874.84;;;8.24;100.00
75681;BME280;64294;49.176;16.626;2023-05-18T01:40:32;99880.19;;;8.27;100.00
75681;BME280;64294;49.176;16.626;2023-05-18T01:43:05;99878.16;;;8.28;100.00
75681;BME280;64294;49.176;16.626;2023-05-18T01:45:35;99876.38;;;8.25;100.00
75681;BME280;64294;49.176;16.626;2023-05-18T01:48:03;99878.66;;;8.26;100.00
75681;BME280;64294;49.176;16.626;2023-05-18T01:50:34;99877.38;;;8.27;98.31
75681;BME280;64294;49.176;16.626;2023-05-18T01:53:11;99883.50;;;8.26;98.59
75681;BME280;64294;49.176;16.626;2023-05-18T01:55:39;99880.69;;;8.26;97.85
75681;BME280;64294;49.176;16.626;2023-05-18T01:58:06;99888.31;;;8.31;98.15
75681;BME280;64294;49.176;16.626;2023-05-18T02:00:33;99883.50;;;8.26;97.58
75681;BME280;64294;49.176;16.626;2023-05-18T02:02:59;99885.78;;;8.27;97.67
75681;BME280;64294;49.176;16.626;2023-05-18T02:05:25;99880.44;;;8.29;97.18
75681;BME280;64294;49.176;16.626;2023-05-18T02:07:50;99885.03;;;8.27;97.39
75681;BME280;64294;49.176;16.626;2023-05-18T02:10:16;99886.53;;;8.28;97.02
75681;BME280;64294;49.176;16.626;2023-05-18T02:12:41;99885.03;;;8.27;97.27
75681;BME280;64294;49.176;16.626;2023-05-18T02:15:07;99884.53;;;8.34;95.91
75681;BME280;64294;49.176;16.626;2023-05-18T02:17:33;99891.91;;;8.31;96.68
75681;BME280;64294;49.176;16.626;2023-05-18T02:20:02;99878.66;;;8.32;95.71
75681;BME280;64294;49.176;16.626;2023-05-18T02:22:31;99891.38;;;8.33;94.72
75681;BME280;64294;49.176;16.626;2023-05-18T02:24:57;99883.50;;;8.26;95.50
75681;BME280;64294;49.176;16.626;2023-05-18T02:27:22;99882.75;;;8.36;94.84
75681;BME280;64294;49.176;16.626;2023-05-18T02:29:47;99884.00;;;8.30;94.99
75681;BME280;64294;49.176;16.626;2023-05-18T02:32:13;99885.06;;;8.38;95.24
75681;BME280;64294;49.176;16.626;2023-05-18T02:34:38;99876.91;;;8.34;94.25
75681;BME280;64294;49.176;16.626;2023-05-18T02:37:06;99878.41;;;8.30;95.34
75681;BME280;64294;49.176;16.626;2023-05-18T02:39:31;99863.38;;;8.33;95.51
75681;BME280;64294;49.176;16.626;2023-05-18T02:41:58;99883.50;;;8.26;96.11
75681;BME280;64294;49.176;16.626;2023-05-18T02:44:23;99878.16;;;8.28;97.24
75681;BME280;64294;49.176;16.626;2023-05-18T02:46:49;99876.88;;;8.29;97.51
75681;BME280;64294;49.176;16.626;2023-05-18T02:49:14;99879.69;;;8.23;97.59
75681;BME280;64294;49.176;16.626;2023-05-18T02:51:40;99874.84;;;8.24;98.36
75681;BME280;64294;49.176;16.626;2023-05-18T02:54:05;99875.84;;;8.20;99.03
75681;BME280;64294;49.176;16.626;2023-05-18T02:56:31;99872.81;;;8.18;98.63
75681;BME280;64294;49.176;16.626;2023-05-18T02:58:57;99878.16;;;8.28;99.36
75681;BME280;64294;49.176;16.626;2023-05-18T03:01:25;99881.69;;;8.17;98.74
75681;BME280;64294;49.176;16.626;2023-05-18T03:03:55;99867.44;;;8.15;98.22
75681;BME280;64294;49.176;16.626;2023-05-18T03:06:23;99867.94;;;8.13;98.68
75681;BME280;64294;49.176;16.626;2023-05-18T03:08:53;99872.53;;;8.16;97.85
75681;BME280;64294;49.176;16.626;2023-05-18T03:11:22;99875.59;;;8.30;97.38
75681;BME280;64294;49.176;16.626;2023-05-18T03:13:48;99878.41;;;8.30;97.35
75681;BME280;64294;49.176;16.626;2023-05-18T03:16:14;99880.44;;;8.24;97.36
75681;BME280;64294;49.176;16.626;2023-05-18T03:18:39;99882.44;;;8.17;97.14
75681;BME280;64294;49.176;16.626;2023-05-18T03:21:05;99878.41;;;8.30;97.11
75681;BME280;64294;49.176;16.626;2023-05-18T03:23:32;99882.75;;;8.36;97.26
75681;BME280;64294;49.176;16.626;2023-05-18T03:25:58;99886.81;;;8.30;95.42
75681;BME280;64294;49.176;16.626;2023-05-18T03:28:27;99890.13;;;8.34;95.58
75681;BME280;64294;49.176;16.626;2023-05-18T03:30:53;99881.72;;;8.28;97.14
75681;BME280;64294;49.176;16.626;2023-05-18T03:33:19;99887.81;;;8.32;95.27
75681;BME280;64294;49.176;16.626;2023-05-18T03:35:44;99881.19;;;8.30;96.52
75681;BME280;64294;49.176;16.626;2023-05-18T03:38:10;99879.16;;;8.30;96.05
75681;BME280;64294;49.176;16.626;2023-05-18T03:40:35;99885.06;;;8.38;94.43
75681;BME280;64294;49.176;16.626;2023-05-18T03:43:01;99880.47;;;8.35;95.76
75681;BME280;64294;49.176;16.626;2023-05-18T03:45:29;99884.53;;;8.34;95.20
75681;BME280;64294;49.176;16.626;2023-05-18T03:47:54;99886.81;;;8.35;93.11
75681;BME280;64294;49.176;16.626;2023-05-18T03:50:20;99887.56;;;8.30;93.39
75681;BME280;64294;49.176;16.626;2023-05-18T03:52:45;99894.69;;;8.31;96.08
75681;BME280;64294;49.176;16.626;2023-05-18T03:55:11;99896.97;;;8.33;96.75
75681;BME280;64294;49.176;16.626;2023-05-18T03:57:37;99895.75;;;8.50;94.83
75681;BME280;64294;49.176;16.626;2023-05-18T04:00:04;99896.00;;;8.36;93.99
75681;BME280;64294;49.176;16.626;2023-05-18T04:02:33;99897.81;;;8.39;94.18
75681;BME280;64294;49.176;16.626;2023-05-18T04:04:58;99901.34;;;8.34;95.07
75681;BME280;64294;49.176;16.626;2023-05-18T04:07:25;99894.69;;;8.31;95.70
75681;BME280;64294;49.176;16.626;2023-05-18T04:09:50;99908.19;;;8.33;94.23
75681;BME280;64294;49.176;16.626;2023-05-18T04:12:16;99908.47;;;8.35;95.03
75681;BME280;64294;49.176;16.626;2023-05-18T04:14:42;99914.28;;;8.26;95.93
75681;BME280;64294;49.176;16.626;2023-05-18T04:17:07;99918.63;;;8.27;95.65
75681;BME280;64294;49.176;16.626;2023-05-18T04:19:35;99921.19;;;8.36;93.66
75681;BME280;64294;49.176;16.626;2023-05-18T04:22:01;99917.34;;;8.33;94.65
75681;BME280;64294;49.176;16.626;2023-05-18T04:24:31;99914.84;;;8.41;91.24
75681;BME280;64294;49.176;16.626;2023-05-18T04:27:00;99918.41;;;8.36;92.11
75681;BME280;64294;49.176;16.626;2023-05-18T04:29:29;99932.16;;;8.45;91.75
75681;BME280;64294;49.176;16.626;2023-05-18T04:31:55;99925.03;;;8.49;92.38
75681;BME280;64294;49.176;16.626;2023-05-18T04:34:27;99932.19;;;8.56;92.61
75681;BME280;64294;49.176;16.626;2023-05-18T04:36:54;99936.50;;;8.52;92.96
75681;BME280;64294;49.176;16.626;2023-05-18T04:39:20;99945.69;;;8.58;92.88
75681;BME280;64294;49.176;16.626;2023-05-18T04:41:47;99940.59;;;8.67;93.65
75681;BME280;64294;49.176;16.626;2023-05-18T04:44:12;99943.13;;;8.71;93.00
75681;BME280;64294;49.176;16.626;2023-05-18T04:46:38;99949.00;;;8.67;92.35
75681;BME280;64294;49.176;16.626;2023-05-18T04:49:05;99952.53;;;8.73;91.87
75681;BME280;64294;49.176;16.626;2023-05-18T04:51:30;99946.44;;;8.64;92.33
75681;BME280;64294;49.176;16.626;2023-05-18T04:53:59;99945.16;;;8.70;91.99
75681;BME280;64294;49.176;16.626;2023-05-18T04:56:24;99955.38;;;8.62;92.75
75681;BME280;64294;49.176;16.626;2023-05-18T04:58:50;99954.09;;;8.63;93.65
75681;BME280;64294;49.176;16.626;2023-05-18T05:01:15;99961.47;;;8.66;91.88
75681;BME280;64294;49.176;16.626;2023-05-18T05:03:41;99962.75;;;8.60;91.50
75681;BME280;64294;49.176;16.626;2023-05-18T05:06:07;99963.00;;;8.56;93.05
75681;BME280;64294;49.176;16.626;2023-05-18T05:08:34;99960.94;;;8.51;93.17
75681;BME280;64294;49.176;16.626;2023-05-18T05:11:00;99970.13;;;8.52;94.30
75681;BME280;64294;49.176;16.626;2023-05-18T05:13:26;99964.28;;;8.66;91.91
75681;BME280;64294;49.176;16.626;2023-05-18T05:15:52;99969.88;;;8.61;91.75
75681;BME280;64294;49.176;16.626;2023-05-18T05:18:17;99967.84;;;8.56;93.83
75681;BME280;64294;49.176;16.626;2023-05-18T05:20:42;99969.63;;;8.59;93.26
75681;BME280;64294;49.176;16.626;2023-05-18T05:23:08;99968.59;;;8.67;93.47
75681;BME280;64294;49.176;16.626;2023-05-18T05:25:33;99973.44;;;8.67;92.40
75681;BME280;64294;49.176;16.626;2023-05-18T05:27:59;99967.84;;;8.72;91.50
75681;BME280;64294;49.176;16.626;2023-05-18T05:30:24;99974.47;;;8.64;92.27
75681;BME280;64294;49.176;16.626;2023-05-18T05:32:50;99960.72;;;8.66;92.39
75681;BME280;64294;49.176;16.626;2023-05-18T05:35:17;99968.09;;;8.63;92.49
75681;BME280;64294;49.176;16.626;2023-05-18T05:37:43;99968.09;;;8.63;94.51
75681;BME280;64294;49.176;16.626;2023-05-18T05:40:09;99963.28;;;8.75;94.23
75681;BME280;64294;49.176;16.626;2023-05-18T05:42:35;99968.34;;;8.65;94.06
75681;BME280;64294;49.176;16.626;2023-05-18T05:45:00;99968.59;;;8.73;92.47
75681;BME280;64294;49.176;16.626;2023-05-18T05:47:26;99968.59;;;8.73;92.99
75681;BME280;64294;49.176;16.626;2023-05-18T05:49:51;99972.69;;;8.77;92.70
75681;BME280;64294;49.176;16.626;2023-05-18T05:52:17;99973.72;;;8.74;92.91
75681;BME280;64294;49.176;16.626;2023-05-18T05:54:42;99968.13;;;8.74;92.76
75681;BME280;64294;49.176;16.626;2023-05-18T05:57:08;99979.59;;;8.93;92.51
75681;BME280;64294;49.176;16.626;2023-05-18T05:59:33;99978.53;;;8.85;91.37
75681;BME280;64294;49.176;16.626;2023-05-18T06:01:59;99978.81;;;8.98;91.39
75681;BME280;64294;49.176;16.626;2023-05-18T06:04:24;99984.41;;;9.15;90.80
75681;BME280;64294;49.176;16.626;2023-05-18T06:06:50;99975.97;;;9.21;92.11
75681;BME280;64294;49.176;16.626;2023-05-18T06:09:15;99980.81;;;9.20;92.05
75681;BME280;64294;49.176;16.626;2023-05-18T06:11:41;99979.28;;;9.30;90.82
75681;BME280;64294;49.176;16.626;2023-05-18T06:14:06;99973.88;;;9.44;88.85
75681;BME280;64294;49.176;16.626;2023-05-18T06:16:32;99986.38;;;9.43;89.85
75681;BME280;64294;49.176;16.626;2023-05-18T06:18:59;99983.06;;;9.50;89.52
75681;BME280;64294;49.176;16.626;2023-05-18T06:21:24;99978.94;;;9.62;89.34
75681;BME280;64294;49.176;16.626;2023-05-18T06:23:49;99970.03;;;9.58;89.02
75681;BME280;64294;49.176;16.626;2023-05-18T06:26:15;99977.94;;;9.59;88.50
75681;BME280;64294;49.176;16.626;2023-05-18T06:28:41;99977.66;;;9.63;87.22
75681;BME280;64294;49.176;16.626;2023-05-18T06:31:07;99979.47;;;9.60;87.35
75681;BME280;64294;49.176;16.626;2023-05-18T06:33:32;99981.94;;;9.86;88.32
75681;BME280;64294;49.176;16.626;2023-05-18T06:35:58;99978.34;;;9.91;86.07
75681;BME280;64294;49.176;16.626;2023-05-18T06:38:24;99982.94;;;9.89;85.41
75681;BME280;64294;49.176;16.626;2023-05-18T06:40:49;99984.41;;;10.07;84.96
75681;BME280;64294;49.176;16.626;2023-05-18T06:43:15;99988.94;;;10.15;85.59
75681;BME280;64294;49.176;16.626;2023-05-18T06:45:40;99990.47;;;10.16;86.02
75681;BME280;64294;49.176;16.626;2023-05-18T06:48:06;99986.38;;;10.17;84.98
75681;BME280;64294;49.176;16.626;2023-05-18T06:50:31;99986.63;;;10.25;85.43
75681;BME280;64294;49.176;16.626;2023-05-18T06:52:56;99974.78;;;10.38;84.39
75681;BME280;64294;49.176;16.626;2023-05-18T06:55:22;99983.50;;;10.34;83.58
75681;BME280;64294;49.176;16.626;2023-05-18T06:57:47;99977.13;;;10.34;84.34
75681;BME280;64294;49.176;16.626;2023-05-18T07:00:13;99981.84;;;10.55;84.43
75681;BME280;64294;49.176;16.626;2023-05-18T07:02:38;99986.41;;;10.58;85.53
75681;BME280;64294;49.176;16.626;2023-05-18T07:05:05;99981.06;;;10.55;84.09
75681;BME280;64294;49.176;16.626;2023-05-18T07:07:36;99987.88;;;10.71;83.22
75681;BME280;64294;49.176;16.626;2023-05-18T07:10:03;99992.00;;;11.00;81.30
75681;BME280;64294;49.176;16.626;2023-05-18T07:12:28;99994.66;;;11.16;78.79
75681;BME280;64294;49.176;16.626;2023-05-18T07:14:54;99981.16;;;11.34;78.47
75681;BME280;64294;49.176;16.626;2023-05-18T07:17:19;99977.84;;;11.35;76.24
75681;BME280;64294;49.176;16.626;2023-05-18T07:19:45;99982.41;;;11.63;77.08
75681;BME280;64294;49.176;16.626;2023-05-18T07:22:10;99986.66;;;11.75;75.57
75681;BME280;64294;49.176;16.626;2023-05-18T07:24:35;99987.47;;;11.94;74.06
75681;BME280;64294;49.176;16.626;2023-05-18T07:27:01;99977.88;;;12.03;73.31
75681;BME280;64294;49.176;16.626;2023-05-18T07:29:27;99984.50;;;12.05;68.79
75681;BME280;64294;49.176;16.626;2023-05-18T07:31:53;99975.13;;;12.35;67.15
75681;BME280;64294;49.176;16.626;2023-05-18T07:34:18;99978.94;;;12.37;66.44
75681;BME280;64294;49.176;16.626;2023-05-18T07:36:44;99976.75;;;12.30;66.29
75681;BME280;64294;49.176;16.626;2023-05-18T07:39:09;99977.19;;;12.34;65.84
75681;BME280;64294;49.176;16.626;2023-05-18T07:41:43;99980.75;;;12.54;64.72
75681;BME280;64294;49.176;16.626;2023-05-18T07:44:09;99980.31;;;12.82;62.30
75681;BME280;64294;49.176;16.626;2023-05-18T07:46:34;99969.06;;;12.63;63.54
75681;BME280;64294;49.176;16.626;2023-05-18T07:48:59;99970.66;;;12.77;62.32
75681;BME280;64294;49.176;16.626;2023-05-18T07:51:25;99970.56;;;12.83;62.57
75681;BME280;64294;49.176;16.626;2023-05-18T07:53:51;99967.72;;;13.01;60.68
75681;BME280;64294;49.176;16.626;2023-05-18T07:56:16;99973.88;;;13.45;60.03
75681;BME280;64294;49.176;16.626;2023-05-18T07:58:42;99977.56;;;13.80;58.67
75681;BME280;64294;49.176;16.626;2023-05-18T08:01:08;99975.13;;;14.23;57.75
75681;BME280;64294;49.176;16.626;2023-05-18T08:03:34;99981.91;;;14.41;58.53
75681;BME280;64294;49.176;16.626;2023-05-18T08:05:59;99988.19;;;14.61;57.33
75681;BME280;64294;49.176;16.626;2023-05-18T08:08:25;99979.09;;;14.75;55.73
75681;BME280;64294;49.176;16.626;2023-05-18T08:10:50;99984.84;;;15.04;55.10
75681;BME280;64294;49.176;16.626;2023-05-18T08:13:17;99984.44;;;15.00;55.29
75681;BME280;64294;49.176;16.626;2023-05-18T08:15:42;99990.56;;;15.32;55.42
75681;BME280;64294;49.176;16.626;2023-05-18T08:18:08;99987.25;;;15.00;53.36
75681;BME280;64294;49.176;16.626;2023-05-18T08:20:33;99986.78;;;15.09;53.96
75681;BME280;64294;49.176;16.626;2023-05-18T08:23:01;100005.38;;;14.63;54.21
75681;BME280;64294;49.176;16.626;2023-05-18T08:25:26;99994.06;;;14.63;54.89
75681;BME280;64294;49.176;16.626;2023-05-18T08:27:52;99995.22;;;14.33;55.61
75681;BME280;64294;49.176;16.626;2023-05-18T08:30:17;100005.03;;;14.06;55.89
75681;BME280;64294;49.176;16.626;2023-05-18T08:32:46;99999.34;;;14.32;54.87
75681;BME280;64294;49.176;16.626;2023-05-18T08:35:12;99984.91;;;14.22;56.76
75681;BME280;64294;49.176;16.626;2023-05-18T08:37:37;100005.75;;;14.46;56.50
75681;BME280;64294;49.176;16.626;2023-05-18T08:40:04;100002.31;;;14.95;53.66
75681;BME280;64294;49.176;16.626;2023-05-18T08:45:19;99995.38;;;15.24;53.22
75681;BME280;64294;49.176;16.626;2023-05-18T08:47:48;99988.03;;;15.50;52.15
75681;BME280;64294;49.176;16.626;2023-05-18T08:50:17;99992.13;;;15.62;50.66
75681;BME280;64294;49.176;16.626;2023-05-18T08:52:47;99994.94;;;15.90;51.30
75681;BME280;64294;49.176;16.626;2023-05-18T08:55:16;99993.91;;;16.16;50.13
75681;BME280;64294;49.176;16.626;2023-05-18T08:57:45;99988.25;;;16.68;48.90
75681;BME280;64294;49.176;16.626;2023-05-18T09:00:14;99992.25;;;16.21;48.85
75681;BME280;64294;49.176;16.626;2023-05-18T09:02:40;99987.91;;;16.27;49.73
75681;BME280;64294;49.176;16.626;2023-05-18T09:05:08;99987.28;;;16.14;50.03
75681;BME280;64294;49.176;16.626;2023-05-18T09:07:34;99985.06;;;16.20;49.05
75681;BME280;64294;49.176;16.626;2023-05-18T09:10:01;99979.41;;;16.20;49.15
75681;BME280;64294;49.176;16.626;2023-05-18T09:12:27;99977.38;;;16.43;48.97
75681;BME280;64294;49.176;16.626;2023-05-18T09:14:53;99979.16;;;16.61;49.11
75681;BME280;64294;49.176;16.626;2023-05-18T09:17:19;99970.31;;;16.88;47.59
75681;BME280;64294;49.176;16.626;2023-05-18T09:19:47;99970.50;;;16.90;47.19
75681;BME280;64294;49.176;16.626;2023-05-18T09:22:13;99971.09;;;17.04;46.57
75681;BME280;64294;49.176;16.626;2023-05-18T09:24:40;99969.38;;;17.01;46.68
75681;BME280;64294;49.176;16.626;2023-05-18T09:27:05;99966.34;;;17.21;46.39
75681;BME280;64294;49.176;16.626;2023-05-18T09:29:31;99969.19;;;17.44;46.43
75681;BME280;64294;49.176;16.626;2023-05-18T09:32:01;99967.88;;;17.07;46.66
75681;BME280;64294;49.176;16.626;2023-05-18T09:34:38;99968.44;;;17.13;46.62
75681;BME280;64294;49.176;16.626;2023-05-18T09:37:04;99977.72;;;17.21;47.04
75681;BME280;64294;49.176;16.626;2023-05-18T09:39:30;99974.88;;;16.99;46.23
75681;BME280;64294;49.176;16.626;2023-05-18T09:41:55;99971.25;;;16.75;48.28
75681;BME280;64294;49.176;16.626;2023-05-18T09:44:34;99961.41;;;16.84;46.75
75681;BME280;64294;49.176;16.626;2023-05-18T09:47:00;99966.56;;;16.34;48.21
75681;BME280;64294;49.176;16.626;2023-05-18T09:49:28;99973.34;;;17.05;48.02
75681;BME280;64294;49.176;16.626;2023-05-18T09:51:54;99969.00;;;16.74;47.92
75681;BME280;64294;49.176;16.626;2023-05-18T09:54:21;99979.78;;;16.83;47.92
75681;BME280;64294;49.176;16.626;2023-05-18T09:56:48;99973.53;;;16.77;47.04
75681;BME280;64294;49.176;16.626;2023-05-18T09:59:14;99969.22;;;17.14;47.78
75681;BME280;64294;49.176;16.626;2023-05-18T10:02:03;99972.41;;;17.10;47.65
75681;BME280;64294;49.176;16.626;2023-05-18T10:04:42;99973.56;;;17.15;47.67
75681;BME280;64294;49.176;16.626;2023-05-18T10:07:13;99967.28;;;17.47;48.03
75681;BME280;64294;49.176;16.626;2023-05-18T10:09:40;99962.50;;;17.65;45.85
75681;BME280;64294;49.176;16.626;2023-05-18T10:12:12;99959.38;;;17.15;45.16
75681;BME280;64294;49.176;16.626;2023-05-18T10:14:43;99961.44;;;17.14;46.53
75681;BME280;64294;49.176;16.626;2023-05-18T10:17:13;99962.19;;;17.22;46.47
75681;BME280;64294;49.176;16.626;2023-05-18T10:19:40;99967.06;;;17.75;45.82
75681;BME280;64294;49.176;16.626;2023-05-18T10:22:08;99973.34;;;18.29;45.02
75681;BME280;64294;49.176;16.626;2023-05-18T10:24:37;99955.84;;;17.93;45.12
75681;BME280;64294;49.176;16.626;2023-05-18T10:27:07;99963.13;;;18.19;44.88
75681;BME280;64294;49.176;16.626;2023-05-18T10:29:35;99958.19;;;17.71;45.64
75681;BME280;64294;49.176;16.626;2023-05-18T10:32:03;99962.53;;;17.72;46.25
75681;BME280;64294;49.176;16.626;2023-05-18T10:34:30;99966.13;;;18.28;44.84
75681;BME280;64294;49.176;16.626;2023-05-18T10:36:57;99970.41;;;18.44;44.53
75681;BME280;64294;49.176;16.626;2023-05-18T10:39:25;99971.19;;;18.77;43.60
75681;BME280;64294;49.176;16.626;2023-05-18T10:41:53;99974.34;;;18.89;43.21
75681;BME280;64294;49.176;16.626;2023-05-18T10:44:20;99957.41;;;18.91;43.12
75681;BME280;64294;49.176;16.626;2023-05-18T10:46:48;99958.72;;;19.40;42.74
75681;BME280;64294;49.176;16.626;2023-05-18T10:49:15;99966.31;;;18.95;43.16
75681;BME280;64294;49.176;16.626;2023-05-18T10:51:43;99965.06;;;19.31;43.21
75681;BME280;64294;49.176;16.626;2023-05-18T10:54:12;99966.91;;;19.19;42.59
75681;BME280;64294;49.176;16.626;2023-05-18T10:56:42;99962.09;;;19.46;42.37
75681;BME280;64294;49.176;16.626;2023-05-18T10:59:10;99973.09;;;19.25;42.59
75681;BME280;64294;49.176;16.626;2023-05-18T11:01:37;99963.75;;;19.91;42.33
75681;BME280;64294;49.176;16.626;2023-05-18T11:04:04;99970.19;;;19.92;41.35
75681;BME280;64294;49.176;16.626;2023-05-18T11:06:30;99960.28;;;19.58;42.39
75681;BME280;64294;49.176;16.626;2023-05-18T11:08:58;99961.28;;;19.53;44.08
75681;BME280;64294;49.176;16.626;2023-05-18T11:11:23;99951.06;;;20.02;43.11
75681;BME280;64294;49.176;16.626;2023-05-18T11:13:52;99954.75;;;19.78;41.67
75681;BME280;64294;49.176;16.626;2023-05-18T11:16:18;99934.88;;;19.28;42.55
75681;BME280;64294;49.176;16.626;2023-05-18T11:18:47;99947.75;;;19.36;43.08
75681;BME280;64294;49.176;16.626;2023-05-18T11:21:30;99949.06;;;19.78;42.84
75681;BME280;64294;49.176;16.626;2023-05-18T11:24:25;99947.81;;;20.33;40.85
75681;BME280;64294;49.176;16.626;2023-05-18T11:26:56;99955.06;;;20.16;42.39
75681;BME280;64294;49.176;16.626;2023-05-18T11:29:36;99956.38;;;19.71;42.64
75681;BME280;64294;49.176;16.626;2023-05-18T11:32:28;99955.59;;;19.71;41.95
75681;BME280;64294;49.176;16.626;2023-05-18T11:34:57;99959.13;;;19.96;42.77
75681;BME280;64294;49.176;16.626;2023-05-18T11:42:34;99956.38;;;20.33;40.92
75681;BME280;64294;49.176;16.626;2023-05-18T11:45:07;99970.41;;;20.21;41.19
75681;BME280;64294;49.176;16.626;2023-05-18T11:47:37;99964.09;;;20.40;41.14
75681;BME280;64294;49.176;16.626;2023-05-18T11:50:06;99963.16;;;20.54;41.22
75681;BME280;64294;49.176;16.626;2023-05-18T11:52:52;99952.72;;;20.67;40.92
75681;BME280;64294;49.176;16.626;2023-05-18T11:55:19;99962.22;;;19.90;41.86
75681;BME280;64294;49.176;16.626;2023-05-18T11:57:48;99961.72;;;19.84;41.84
75681;BME280;64294;49.176;16.626;2023-05-18T12:00:14;99968.50;;;19.54;42.49
75681;BME280;64294;49.176;16.626;2023-05-18T12:02:44;99968.97;;;19.43;42.14
75681;BME280;64294;49.176;16.626;2023-05-18T12:05:11;99960.88;;;19.32;42.72
75681;BME280;64294;49.176;16.626;2023-05-18T12:07:37;99969.34;;;19.22;42.69
75681;BME280;64294;49.176;16.626;2023-05-18T12:10:07;99970.97;;;18.83;43.19
75681;BME280;64294;49.176;16.626;2023-05-18T12:12:33;99956.97;;;19.02;42.73
75681;BME280;64294;49.176;16.626;2023-05-18T12:15:01;99975.47;;;18.54;44.21
75681;BME280;64294;49.176;16.626;2023-05-18T12:17:44;99967.34;;;18.10;45.20
75681;BME280;64294;49.176;16.626;2023-05-18T12:20:14;99969.47;;;17.94;46.16
75681;BME280;64294;49.176;16.626;2023-05-18T12:22:44;99964.94;;;17.83;44.85
75681;BME280;64294;49.176;16.626;2023-05-18T12:25:10;99970.50;;;17.74;45.81
75681;BME280;64294;49.176;16.626;2023-05-18T12:27:37;99974.69;;;17.50;46.08
75681;BME280;64294;49.176;16.626;2023-05-18T12:30:05;99976.22;;;18.14;44.75
75681;BME280;64294;49.176;16.626;2023-05-18T12:32:30;99978.25;;;18.29;44.40
75681;BME280;64294;49.176;16.626;2023-05-18T12:34:56;99971.06;;;18.68;43.50
75681;BME280;64294;49.176;16.626;2023-05-18T12:37:24;99974.84;;;18.95;42.10
75681;BME280;64294;49.176;16.626;2023-05-18T12:39:52;99972.94;;;19.23;41.49
75681;BME280;64294;49.176;16.626;2023-05-18T12:42:18;99967.19;;;19.05;41.54
75681;BME280;64294;49.176;16.626;2023-05-18T12:44:44;99976.72;;;19.00;42.41
75681;BME280;64294;49.176;16.626;2023-05-18T12:47:13;99973.22;;;19.34;41.92
75681;BME280;64294;49.176;16.626;2023-05-18T12:49:40;99982.38;;;19.50;39.49
75681;BME280;64294;49.176;16.626;2023-05-18T12:52:13;99971.38;;;19.47;39.99
75681;BME280;64294;49.176;16.626;2023-05-18T12:54:54;99973.97;;;19.60;40.20
75681;BME280;64294;49.176;16.626;2023-05-18T12:57:23;99976.88;;;19.70;40.35
75681;BME280;64294;49.176;16.626;2023-05-18T12:59:52;99976.06;;;20.11;39.94
75681;BME280;64294;49.176;16.626;2023-05-18T13:02:31;99971.66;;;20.45;38.94
75681;BME280;64294;49.176;16.626;2023-05-18T13:05:02;99963.88;;;20.45;39.78
75681;BME280;64294;49.176;16.626;2023-05-18T13:07:28;99978.06;;;20.18;39.22